sensor_id;sensor_type;location;lat;lon;timestamp;pressure;altitude;pressure_sealevel;temperature;humidity
57024;BME280;42916;54.346;18.562;2023-03-19T00:00:26;100316.31;;;5.79;67.39
57024;BME280;42916;54.346;18.562;2023-03-19T00:03:12;100315.81;;;5.81;67.37
57024;BME280;42916;54.346;18.562;2023-03-19T00:05:39;100319.77;;;5.80;67.43
57024;BME280;42916;54.346;18.562;2023-03-19T00:08:06;100324.57;;;5.75;67.48
57024;BME280;42916;54.346;18.562;2023-03-19T00:10:37;100321.66;;;5.67;67.90
57024;BME280;42916;54.346;18.562;2023-03-19T00:13:04;100324.46;;;5.59;67.98
57024;BME280;42916;54.346;18.562;2023-03-19T00:15:30;100321.73;;;5.53;68.26
57024;BME280;42916;54.346;18.562;2023-03-19T00:17:58;100320.68;;;5.54;68.46
57024;BME280;42916;54.346;18.562;2023-03-19T00:20:24;100324.05;;;5.51;68.43
57024;BME280;42916;54.346;18.562;2023-03-19T00:22:51;100318.15;;;5.47;68.62
57024;BME280;42916;54.346;18.562;2023-03-19T00:25:18;100322.52;;;5.46;68.72
57024;BME280;42916;54.346;18.562;2023-03-19T00:27:46;100319.96;;;5.44;68.79
57024;BME280;42916;54.346;18.562;2023-03-19T00:30:13;100316.30;;;5.41;68.84
57024;BME280;42916;54.346;18.562;2023-03-19T00:32:41;100313.86;;;5.37;68.98
57024;BME280;42916;54.346;18.562;2023-03-19T00:35:08;100312.48;;;5.34;69.06
57024;BME280;42916;54.346;18.562;2023-03-19T00:37:36;100315.84;;;5.33;69.35
57024;BME280;42916;54.346;18.562;2023-03-19T00:40:03;100317.25;;;5.32;69.30
57024;BME280;42916;54.346;18.562;2023-03-19T00:42:31;100311.97;;;5.30;69.43
57024;BME280;42916;54.346;18.562;2023-03-19T00:44:58;100314.39;;;5.30;69.42
57024;BME280;42916;54.346;18.562;2023-03-19T00:47:24;100317.48;;;5.29;69.58
57024;BME280;42916;54.346;18.562;2023-03-19T00:49:51;100316.59;;;5.29;69.67
57024;BME280;42916;54.346;18.562;2023-03-19T00:52:18;100316.84;;;5.30;69.67
57024;BME280;42916;54.346;18.562;2023-03-19T00:54:45;100314.89;;;5.31;69.91
57024;BME280;42916;54.346;18.562;2023-03-19T00:57:12;100316.66;;;5.30;70.06
57024;BME280;42916;54.346;18.562;2023-03-19T00:59:38;100318.78;;;5.29;70.24
57024;BME280;42916;54.346;18.562;2023-03-19T01:02:06;100323.59;;;5.25;70.19
57024;BME280;42916;54.346;18.562;2023-03-19T01:04:33;100323.88;;;5.21;70.18
57024;BME280;42916;54.346;18.562;2023-03-19T01:07:00;100326.60;;;5.18;70.40
57024;BME280;42916;54.346;18.562;2023-03-19T01:09:26;100327.42;;;5.14;70.53
57024;BME280;42916;54.346;18.562;2023-03-19T01:11:53;100327.80;;;5.10;70.44
57024;BME280;42916;54.346;18.562;2023-03-19T01:14:21;100325.98;;;5.07;70.68
57024;BME280;42916;54.346;18.562;2023-03-19T01:16:47;100329.91;;;5.05;70.81
57024;BME280;42916;54.346;18.562;2023-03-19T01:19:15;100335.20;;;5.04;71.00
57024;BME280;42916;54.346;18.562;2023-03-19T01:21:42;100335.96;;;5.01;70.89
57024;BME280;42916;54.346;18.562;2023-03-19T01:24:13;100332.23;;;4.96;71.19
57024;BME280;42916;54.346;18.562;2023-03-19T01:26:40;100334.61;;;4.89;71.39
57024;BME280;42916;54.346;18.562;2023-03-19T01:29:19;100337.25;;;4.79;71.28
57024;BME280;42916;54.346;18.562;2023-03-19T01:31:46;100341.40;;;4.70;71.69
57024;BME280;42916;54.346;18.562;2023-03-19T01:34:33;100341.96;;;4.64;71.79
57024;BME280;42916;54.346;18.562;2023-03-19T01:37:11;100338.23;;;4.55;71.93
57024;BME280;42916;54.346;18.562;2023-03-19T01:39:40;100340.88;;;4.46;72.19
57024;BME280;42916;54.346;18.562;2023-03-19T01:42:11;100341.90;;;4.41;72.40
57024;BME280;42916;54.346;18.562;2023-03-19T01:45:46;100340.63;;;4.37;72.95
57024;BME280;42916;54.346;18.562;2023-03-19T01:48:47;100332.34;;;4.37;73.50
57024;BME280;42916;54.346;18.562;2023-03-19T01:51:20;100336.63;;;4.35;73.39
57024;BME280;42916;54.346;18.562;2023-03-19T01:53:53;100341.77;;;4.34;73.65
57024;BME280;42916;54.346;18.562;2023-03-19T01:56:46;100342.74;;;4.30;73.87
57024;BME280;42916;54.346;18.562;2023-03-19T01:59:27;100346.99;;;4.22;73.95
57024;BME280;42916;54.346;18.562;2023-03-19T02:02:36;100349.64;;;4.18;73.85
57024;BME280;42916;54.346;18.562;2023-03-19T02:05:14;100353.11;;;4.17;74.38
57024;BME280;42916;54.346;18.562;2023-03-19T02:07:43;100351.10;;;4.13;74.42
57024;BME280;42916;54.346;18.562;2023-03-19T02:10:13;100353.48;;;4.07;74.07
57024;BME280;42916;54.346;18.562;2023-03-19T02:12:42;100352.00;;;4.04;74.37
57024;BME280;42916;54.346;18.562;2023-03-19T02:15:09;100350.40;;;4.04;74.57
57024;BME280;42916;54.346;18.562;2023-03-19T02:17:37;100349.11;;;4.05;74.68
57024;BME280;42916;54.346;18.562;2023-03-19T02:20:29;100346.42;;;4.05;74.79
57024;BME280;42916;54.346;18.562;2023-03-19T02:26:01;100342.90;;;4.04;75.30
57024;BME280;42916;54.346;18.562;2023-03-19T02:28:31;100344.54;;;4.04;75.50
57024;BME280;42916;54.346;18.562;2023-03-19T02:30:59;100343.10;;;4.07;75.53
57024;BME280;42916;54.346;18.562;2023-03-19T02:33:25;100339.69;;;4.10;75.44
57024;BME280;42916;54.346;18.562;2023-03-19T02:35:54;100343.33;;;4.12;75.56
57024;BME280;42916;54.346;18.562;2023-03-19T02:38:24;100334.73;;;4.15;75.39
57024;BME280;42916;54.346;18.562;2023-03-19T02:40:57;100335.30;;;4.19;75.63
57024;BME280;42916;54.346;18.562;2023-03-19T02:43:25;100335.55;;;4.23;75.42
57024;BME280;42916;54.346;18.562;2023-03-19T02:45:53;100338.41;;;4.30;75.59
57024;BME280;42916;54.346;18.562;2023-03-19T02:48:19;100339.14;;;4.35;75.68
57024;BME280;42916;54.346;18.562;2023-03-19T02:50:46;100341.28;;;4.39;75.49
57024;BME280;42916;54.346;18.562;2023-03-19T02:53:13;100339.19;;;4.41;75.50
57024;BME280;42916;54.346;18.562;2023-03-19T02:55:41;100338.94;;;4.43;75.62
57024;BME280;42916;54.346;18.562;2023-03-19T02:58:09;100335.48;;;4.44;75.87
57024;BME280;42916;54.346;18.562;2023-03-19T03:00:36;100337.71;;;4.45;75.59
57024;BME280;42916;54.346;18.562;2023-03-19T03:03:04;100341.52;;;4.45;75.69
57024;BME280;42916;54.346;18.562;2023-03-19T03:05:32;100338.92;;;4.44;75.64
57024;BME280;42916;54.346;18.562;2023-03-19T03:07:59;100339.94;;;4.42;75.71
57024;BME280;42916;54.346;18.562;2023-03-19T03:10:27;100335.39;;;4.39;75.66
57024;BME280;42916;54.346;18.562;2023-03-19T03:12:54;100336.27;;;4.36;75.64
57024;BME280;42916;54.346;18.562;2023-03-19T03:15:21;100337.74;;;4.33;75.83
57024;BME280;42916;54.346;18.562;2023-03-19T03:17:48;100338.59;;;4.30;75.74
57024;BME280;42916;54.346;18.562;2023-03-19T03:20:15;100341.10;;;4.25;75.71
57024;BME280;42916;54.346;18.562;2023-03-19T03:22:43;100337.64;;;4.21;75.51
57024;BME280;42916;54.346;18.562;2023-03-19T03:25:10;100343.59;;;4.16;75.78
57024;BME280;42916;54.346;18.562;2023-03-19T03:27:37;100338.68;;;4.12;76.10
57024;BME280;42916;54.346;18.562;2023-03-19T03:30:05;100344.23;;;4.11;76.26
57024;BME280;42916;54.346;18.562;2023-03-19T03:32:35;100347.55;;;4.09;76.32
57024;BME280;42916;54.346;18.562;2023-03-19T03:35:03;100349.94;;;4.04;76.62
57024;BME280;42916;54.346;18.562;2023-03-19T03:37:30;100348.31;;;3.98;76.69
57024;BME280;42916;54.346;18.562;2023-03-19T03:39:57;100351.85;;;3.92;76.91
57024;BME280;42916;54.346;18.562;2023-03-19T03:42:24;100355.45;;;3.89;77.17
57024;BME280;42916;54.346;18.562;2023-03-19T03:44:51;100358.67;;;3.82;77.17
57024;BME280;42916;54.346;18.562;2023-03-19T03:47:18;100356.44;;;3.79;77.44
57024;BME280;42916;54.346;18.562;2023-03-19T03:49:45;100358.02;;;3.77;77.43
57024;BME280;42916;54.346;18.562;2023-03-19T03:52:12;100353.61;;;3.72;77.38
57024;BME280;42916;54.346;18.562;2023-03-19T03:54:39;100353.98;;;3.68;77.38
57024;BME280;42916;54.346;18.562;2023-03-19T03:57:06;100356.92;;;3.66;77.45
57024;BME280;42916;54.346;18.562;2023-03-19T03:59:33;100355.77;;;3.67;77.58
57024;BME280;42916;54.346;18.562;2023-03-19T04:02:01;100353.16;;;3.66;77.59
57024;BME280;42916;54.346;18.562;2023-03-19T04:04:27;100352.59;;;3.66;77.82
57024;BME280;42916;54.346;18.562;2023-03-19T04:06:55;100352.58;;;3.65;78.07
57024;BME280;42916;54.346;18.562;2023-03-19T04:09:31;100352.96;;;3.64;78.19
57024;BME280;42916;54.346;18.562;2023-03-19T04:11:58;100348.33;;;3.62;78.32
57024;BME280;42916;54.346;18.562;2023-03-19T04:14:25;100350.45;;;3.58;78.26
57024;BME280;42916;54.346;18.562;2023-03-19T04:16:52;100348.84;;;3.57;78.69
57024;BME280;42916;54.346;18.562;2023-03-19T04:19:19;100352.68;;;3.59;78.44
57024;BME280;42916;54.346;18.562;2023-03-19T04:21:46;100349.66;;;3.59;78.62
57024;BME280;42916;54.346;18.562;2023-03-19T04:24:13;100351.77;;;3.62;79.08
57024;BME280;42916;54.346;18.562;2023-03-19T04:26:40;100351.51;;;3.69;79.07
57024;BME280;42916;54.346;18.562;2023-03-19T04:29:08;100350.61;;;3.78;78.93
57024;BME280;42916;54.346;18.562;2023-03-19T04:31:35;100354.61;;;3.84;79.01
57024;BME280;42916;54.346;18.562;2023-03-19T04:34:02;100350.56;;;3.90;78.32
57024;BME280;42916;54.346;18.562;2023-03-19T04:36:29;100353.98;;;3.97;78.70
57024;BME280;42916;54.346;18.562;2023-03-19T04:38:56;100359.16;;;3.97;78.57
57024;BME280;42916;54.346;18.562;2023-03-19T04:41:23;100360.77;;;3.97;78.76
57024;BME280;42916;54.346;18.562;2023-03-19T04:44:09;100365.71;;;3.92;78.68
57024;BME280;42916;54.346;18.562;2023-03-19T04:46:37;100369.33;;;3.88;78.53
57024;BME280;42916;54.346;18.562;2023-03-19T04:49:04;100367.65;;;3.85;78.88
57024;BME280;42916;54.346;18.562;2023-03-19T04:51:31;100364.88;;;3.83;78.72
57024;BME280;42916;54.346;18.562;2023-03-19T04:53:58;100363.22;;;3.83;78.95
57024;BME280;42916;54.346;18.562;2023-03-19T04:56:26;100358.38;;;3.83;79.37
57024;BME280;42916;54.346;18.562;2023-03-19T04:58:53;100357.92;;;3.83;79.23
57024;BME280;42916;54.346;18.562;2023-03-19T05:01:20;100355.23;;;3.81;79.13
57024;BME280;42916;54.346;18.562;2023-03-19T05:03:58;100352.10;;;3.75;79.00
57024;BME280;42916;54.346;18.562;2023-03-19T05:06:25;100346.73;;;3.68;79.10
57024;BME280;42916;54.346;18.562;2023-03-19T05:08:53;100352.34;;;3.64;79.43
57024;BME280;42916;54.346;18.562;2023-03-19T05:11:21;100352.86;;;3.60;79.70
57024;BME280;42916;54.346;18.562;2023-03-19T05:14:05;100350.52;;;3.67;79.95
57024;BME280;42916;54.346;18.562;2023-03-19T05:16:49;100350.03;;;3.77;80.07
57024;BME280;42916;54.346;18.562;2023-03-19T05:19:17;100349.94;;;3.83;80.18
57024;BME280;42916;54.346;18.562;2023-03-19T05:21:44;100343.24;;;3.88;80.44
57024;BME280;42916;54.346;18.562;2023-03-19T05:24:11;100344.42;;;3.96;80.41
57024;BME280;42916;54.346;18.562;2023-03-19T05:26:38;100340.50;;;4.02;80.50
57024;BME280;42916;54.346;18.562;2023-03-19T05:29:21;100346.38;;;4.06;80.58
57024;BME280;42916;54.346;18.562;2023-03-19T05:32:09;100349.23;;;4.06;80.24
57024;BME280;42916;54.346;18.562;2023-03-19T05:34:36;100350.05;;;4.07;80.25
57024;BME280;42916;54.346;18.562;2023-03-19T05:37:03;100353.55;;;4.11;80.42
57024;BME280;42916;54.346;18.562;2023-03-19T05:39:31;100354.07;;;4.17;80.15
57024;BME280;42916;54.346;18.562;2023-03-19T05:42:01;100362.73;;;4.22;79.81
57024;BME280;42916;54.346;18.562;2023-03-19T05:44:29;100364.23;;;4.23;80.04
57024;BME280;42916;54.346;18.562;2023-03-19T05:47:15;100364.92;;;4.25;80.03
57024;BME280;42916;54.346;18.562;2023-03-19T05:49:47;100369.21;;;4.28;80.33
57024;BME280;42916;54.346;18.562;2023-03-19T05:52:14;100373.92;;;4.33;80.11
57024;BME280;42916;54.346;18.562;2023-03-19T05:54:41;100375.05;;;4.38;80.14
57024;BME280;42916;54.346;18.562;2023-03-19T05:57:28;100378.06;;;4.41;80.25
57024;BME280;42916;54.346;18.562;2023-03-19T06:00:01;100375.55;;;4.44;80.35
57024;BME280;42916;54.346;18.562;2023-03-19T06:04:02;100372.71;;;4.51;80.38
57024;BME280;42916;54.346;18.562;2023-03-19T06:06:29;100373.59;;;4.75;79.90
57024;BME280;42916;54.346;18.562;2023-03-19T06:08:56;100376.61;;;4.83;79.92
57024;BME280;42916;54.346;18.562;2023-03-19T06:11:43;100381.16;;;4.91;79.90
57024;BME280;42916;54.346;18.562;2023-03-19T06:14:30;100383.00;;;5.00;79.84
57024;BME280;42916;54.346;18.562;2023-03-19T06:17:15;100379.18;;;5.12;80.09
57024;BME280;42916;54.346;18.562;2023-03-19T06:19:42;100380.45;;;5.24;79.90
57024;BME280;42916;54.346;18.562;2023-03-19T06:22:09;100383.73;;;5.32;79.82
57024;BME280;42916;54.346;18.562;2023-03-19T06:24:36;100382.01;;;5.36;79.58
57024;BME280;42916;54.346;18.562;2023-03-19T06:27:03;100386.81;;;5.42;79.38
57024;BME280;42916;54.346;18.562;2023-03-19T06:29:31;100383.55;;;5.52;79.27
57024;BME280;42916;54.346;18.562;2023-03-19T06:32:02;100384.42;;;5.61;78.77
57024;BME280;42916;54.346;18.562;2023-03-19T06:34:37;100385.34;;;5.70;78.46
57024;BME280;42916;54.346;18.562;2023-03-19T06:37:05;100383.80;;;5.78;78.30
57024;BME280;42916;54.346;18.562;2023-03-19T06:39:32;100384.27;;;5.87;78.27
57024;BME280;42916;54.346;18.562;2023-03-19T06:41:58;100387.20;;;5.96;78.17
57024;BME280;42916;54.346;18.562;2023-03-19T06:44:26;100385.71;;;6.02;77.93
57024;BME280;42916;54.346;18.562;2023-03-19T06:46:53;100389.96;;;6.09;77.78
57024;BME280;42916;54.346;18.562;2023-03-19T06:49:20;100392.02;;;6.18;77.77
57024;BME280;42916;54.346;18.562;2023-03-19T06:51:47;100387.71;;;6.30;77.74
57024;BME280;42916;54.346;18.562;2023-03-19T06:54:14;100389.55;;;6.44;77.65
57024;BME280;42916;54.346;18.562;2023-03-19T06:56:41;100391.63;;;6.59;77.54
57024;BME280;42916;54.346;18.562;2023-03-19T06:59:08;100397.42;;;6.75;77.13
57024;BME280;42916;54.346;18.562;2023-03-19T07:01:41;100402.00;;;6.92;77.06
57024;BME280;42916;54.346;18.562;2023-03-19T07:04:08;100404.26;;;7.03;76.80
57024;BME280;42916;54.346;18.562;2023-03-19T07:06:36;100405.16;;;7.15;76.75
57024;BME280;42916;54.346;18.562;2023-03-19T07:09:03;100403.59;;;7.27;76.57
57024;BME280;42916;54.346;18.562;2023-03-19T07:11:30;100406.00;;;7.37;76.56
57024;BME280;42916;54.346;18.562;2023-03-19T07:13:57;100407.34;;;7.48;76.48
57024;BME280;42916;54.346;18.562;2023-03-19T07:16:24;100410.86;;;7.57;76.22
57024;BME280;42916;54.346;18.562;2023-03-19T07:18:51;100409.86;;;7.64;75.92
57024;BME280;42916;54.346;18.562;2023-03-19T07:21:18;100416.89;;;7.70;75.74
57024;BME280;42916;54.346;18.562;2023-03-19T07:23:44;100412.55;;;7.77;75.55
57024;BME280;42916;54.346;18.562;2023-03-19T07:26:12;100413.31;;;7.84;75.82
57024;BME280;42916;54.346;18.562;2023-03-19T07:28:39;100417.51;;;7.89;75.25
57024;BME280;42916;54.346;18.562;2023-03-19T07:31:05;100416.23;;;7.94;75.46
57024;BME280;42916;54.346;18.562;2023-03-19T07:33:32;100419.41;;;8.00;75.27
57024;BME280;42916;54.346;18.562;2023-03-19T07:35:59;100418.58;;;8.09;75.27
57024;BME280;42916;54.346;18.562;2023-03-19T07:38:26;100422.61;;;8.18;74.97
57024;BME280;42916;54.346;18.562;2023-03-19T07:40:53;100426.47;;;8.30;75.03
57024;BME280;42916;54.346;18.562;2023-03-19T07:43:19;100428.15;;;8.44;74.79
57024;BME280;42916;54.346;18.562;2023-03-19T07:45:46;100429.13;;;8.60;74.75
57024;BME280;42916;54.346;18.562;2023-03-19T07:48:13;100425.66;;;8.78;74.62
57024;BME280;42916;54.346;18.562;2023-03-19T07:50:40;100425.27;;;8.97;74.50
57024;BME280;42916;54.346;18.562;2023-03-19T07:53:07;100423.84;;;9.19;74.57
57024;BME280;42916;54.346;18.562;2023-03-19T07:55:33;100422.36;;;9.41;74.28
57024;BME280;42916;54.346;18.562;2023-03-19T07:58:00;100425.34;;;9.61;74.14
57024;BME280;42916;54.346;18.562;2023-03-19T08:00:27;100425.35;;;9.84;73.96
57024;BME280;42916;54.346;18.562;2023-03-19T08:02:54;100420.35;;;10.08;73.48
57024;BME280;42916;54.346;18.562;2023-03-19T08:05:21;100421.94;;;10.32;73.27
57024;BME280;42916;54.346;18.562;2023-03-19T08:07:48;100422.04;;;10.54;72.58
57024;BME280;42916;54.346;18.562;2023-03-19T08:10:16;100424.69;;;10.78;72.00
57024;BME280;42916;54.346;18.562;2023-03-19T08:12:43;100417.65;;;10.98;71.33
57024;BME280;42916;54.346;18.562;2023-03-19T08:15:11;100421.27;;;11.18;70.70
57024;BME280;42916;54.346;18.562;2023-03-19T08:17:38;100420.60;;;11.35;69.94
57024;BME280;42916;54.346;18.562;2023-03-19T08:20:09;100424.10;;;11.50;69.48
57024;BME280;42916;54.346;18.562;2023-03-19T08:22:38;100420.34;;;11.65;68.89
57024;BME280;42916;54.346;18.562;2023-03-19T08:25:05;100418.52;;;11.78;68.33
57024;BME280;42916;54.346;18.562;2023-03-19T08:27:33;100418.34;;;11.91;67.97
57024;BME280;42916;54.346;18.562;2023-03-19T08:30:05;100412.81;;;12.03;67.33
57024;BME280;42916;54.346;18.562;2023-03-19T08:32:33;100411.62;;;12.15;67.03
57024;BME280;42916;54.346;18.562;2023-03-19T08:35:00;100410.90;;;12.27;66.55
57024;BME280;42916;54.346;18.562;2023-03-19T08:37:26;100408.71;;;12.39;66.15
57024;BME280;42916;54.346;18.562;2023-03-19T08:39:53;100409.36;;;12.51;65.74
57024;BME280;42916;54.346;18.562;2023-03-19T08:42:20;100409.61;;;12.62;65.74
57024;BME280;42916;54.346;18.562;2023-03-19T08:44:48;100411.06;;;12.74;65.25
57024;BME280;42916;54.346;18.562;2023-03-19T08:47:15;100412.61;;;12.85;65.05
57024;BME280;42916;54.346;18.562;2023-03-19T08:49:42;100410.66;;;12.96;64.59
57024;BME280;42916;54.346;18.562;2023-03-19T08:52:09;100409.05;;;13.06;64.01
57024;BME280;42916;54.346;18.562;2023-03-19T08:54:36;100414.51;;;13.17;63.34
57024;BME280;42916;54.346;18.562;2023-03-19T08:57:03;100413.73;;;13.27;63.08
57024;BME280;42916;54.346;18.562;2023-03-19T08:59:30;100412.04;;;13.34;62.59
57024;BME280;42916;54.346;18.562;2023-03-19T09:01:57;100412.46;;;13.41;62.11
57024;BME280;42916;54.346;18.562;2023-03-19T09:04:24;100412.64;;;13.47;62.01
57024;BME280;42916;54.346;18.562;2023-03-19T09:06:50;100411.85;;;13.54;61.61
57024;BME280;42916;54.346;18.562;2023-03-19T09:09:18;100411.57;;;13.64;61.53
57024;BME280;42916;54.346;18.562;2023-03-19T09:11:46;100411.89;;;13.73;60.80
57024;BME280;42916;54.346;18.562;2023-03-19T09:14:14;100407.34;;;13.83;60.62
57024;BME280;42916;54.346;18.562;2023-03-19T09:16:42;100407.63;;;13.94;60.04
57024;BME280;42916;54.346;18.562;2023-03-19T09:19:09;100405.19;;;14.05;59.78
57024;BME280;42916;54.346;18.562;2023-03-19T09:21:36;100402.71;;;14.11;59.51
57024;BME280;42916;54.346;18.562;2023-03-19T09:24:03;100403.19;;;14.16;58.92
57024;BME280;42916;54.346;18.562;2023-03-19T09:26:30;100405.25;;;14.22;58.88
57024;BME280;42916;54.346;18.562;2023-03-19T09:28:57;100409.39;;;14.26;58.72
57024;BME280;42916;54.346;18.562;2023-03-19T09:31:24;100409.21;;;14.31;58.45
57024;BME280;42916;54.346;18.562;2023-03-19T09:33:51;100406.77;;;14.37;58.40
57024;BME280;42916;54.346;18.562;2023-03-19T09:36:18;100408.33;;;14.46;58.17
57024;BME280;42916;54.346;18.562;2023-03-19T09:38:44;100411.50;;;14.55;57.90
57024;BME280;42916;54.346;18.562;2023-03-19T09:41:25;100409.81;;;14.59;57.19
57024;BME280;42916;54.346;18.562;2023-03-19T09:46:28;100409.82;;;14.69;57.01
57024;BME280;42916;54.346;18.562;2023-03-19T09:49:32;100407.79;;;14.81;56.96
57024;BME280;42916;54.346;18.562;2023-03-19T09:52:30;100408.08;;;14.93;56.42
57024;BME280;42916;54.346;18.562;2023-03-19T09:55:13;100408.94;;;15.03;56.13
57024;BME280;42916;54.346;18.562;2023-03-19T09:57:41;100406.72;;;15.14;55.67
57024;BME280;42916;54.346;18.562;2023-03-19T10:00:33;100407.48;;;15.23;55.03
57024;BME280;42916;54.346;18.562;2023-03-19T10:03:24;100403.52;;;15.38;54.91
57024;BME280;42916;54.346;18.562;2023-03-19T10:11:57;100399.19;;;15.78;54.07
57024;BME280;42916;54.346;18.562;2023-03-19T10:17:07;100402.04;;;15.92;53.72
57024;BME280;42916;54.346;18.562;2023-03-19T10:19:41;100400.23;;;15.99;53.55
57024;BME280;42916;54.346;18.562;2023-03-19T10:22:14;100401.95;;;16.07;53.53
57024;BME280;42916;54.346;18.562;2023-03-19T10:24:45;100399.45;;;16.17;53.50
57024;BME280;42916;54.346;18.562;2023-03-19T10:27:19;100395.48;;;16.29;53.04
57024;BME280;42916;54.346;18.562;2023-03-19T10:29:46;100397.02;;;16.42;52.77
57024;BME280;42916;54.346;18.562;2023-03-19T10:34:44;100399.91;;;16.55;52.24
57024;BME280;42916;54.346;18.562;2023-03-19T10:39:40;100392.02;;;16.62;51.55
57024;BME280;42916;54.346;18.562;2023-03-19T10:45:27;100390.00;;;16.72;51.29
57024;BME280;42916;54.346;18.562;2023-03-19T10:47:56;100393.67;;;16.77;50.83
57024;BME280;42916;54.346;18.562;2023-03-19T10:50:49;100392.00;;;16.75;50.39
57024;BME280;42916;54.346;18.562;2023-03-19T10:55:54;100389.61;;;16.77;50.31
57024;BME280;42916;54.346;18.562;2023-03-19T10:58:26;100383.90;;;16.77;50.09
57024;BME280;42916;54.346;18.562;2023-03-19T11:01:08;100386.51;;;16.75;50.06
57024;BME280;42916;54.346;18.562;2023-03-19T11:03:37;100388.78;;;16.82;49.94
57024;BME280;42916;54.346;18.562;2023-03-19T11:08:59;100387.13;;;16.83;49.61
57024;BME280;42916;54.346;18.562;2023-03-19T11:11:35;100386.65;;;16.80;49.80
57024;BME280;42916;54.346;18.562;2023-03-19T11:14:24;100379.91;;;16.84;49.88
57024;BME280;42916;54.346;18.562;2023-03-19T11:19:22;100378.88;;;16.64;49.48
57024;BME280;42916;54.346;18.562;2023-03-19T11:24:25;100374.21;;;16.51;49.50
57024;BME280;42916;54.346;18.562;2023-03-19T11:26:53;100372.59;;;16.61;50.01
57024;BME280;42916;54.346;18.562;2023-03-19T11:29:22;100372.16;;;16.80;50.17
57024;BME280;42916;54.346;18.562;2023-03-19T11:31:56;100371.45;;;16.92;49.92
57024;BME280;42916;54.346;18.562;2023-03-19T11:46:03;100373.11;;;17.94;48.14
57024;BME280;42916;54.346;18.562;2023-03-19T11:49:09;100370.73;;;18.17;47.98
57024;BME280;42916;54.346;18.562;2023-03-19T11:51:49;100369.63;;;18.40;47.77
57024;BME280;42916;54.346;18.562;2023-03-19T11:55:13;100368.04;;;18.48;47.29
57024;BME280;42916;54.346;18.562;2023-03-19T11:57:33;100366.45;;;18.47;46.95
57024;BME280;42916;54.346;18.562;2023-03-19T12:06:17;100362.52;;;18.93;46.93
57024;BME280;42916;54.346;18.562;2023-03-19T12:09:11;100356.19;;;19.19;46.68
57024;BME280;42916;54.346;18.562;2023-03-19T12:11:52;100356.05;;;19.34;46.04
57024;BME280;42916;54.346;18.562;2023-03-19T12:17:05;100345.98;;;19.50;45.84
57024;BME280;42916;54.346;18.562;2023-03-19T12:19:57;100343.61;;;19.58;45.20
57024;BME280;42916;54.346;18.562;2023-03-19T12:25:33;100336.97;;;19.77;44.93
57024;BME280;42916;54.346;18.562;2023-03-19T12:28:17;100331.64;;;19.91;45.09
57024;BME280;42916;54.346;18.562;2023-03-19T12:36:03;100335.89;;;20.30;44.18
57024;BME280;42916;54.346;18.562;2023-03-19T12:38:40;100331.91;;;20.47;43.97
57024;BME280;42916;54.346;18.562;2023-03-19T12:41:10;100330.30;;;20.58;43.72
57024;BME280;42916;54.346;18.562;2023-03-19T12:46:28;100328.90;;;20.79;43.75
57024;BME280;42916;54.346;18.562;2023-03-19T12:49:03;100331.54;;;20.86;43.23
57024;BME280;42916;54.346;18.562;2023-03-19T12:51:34;100330.61;;;20.97;43.42
57024;BME280;42916;54.346;18.562;2023-03-19T12:54:11;100332.08;;;21.37;43.10
57024;BME280;42916;54.346;18.562;2023-03-19T12:59:48;100324.23;;;21.95;42.18
57024;BME280;42916;54.346;18.562;2023-03-19T13:02:19;100330.35;;;21.59;41.45
57024;BME280;42916;54.346;18.562;2023-03-19T13:04:53;100330.14;;;21.10;41.54
57024;BME280;42916;54.346;18.562;2023-03-19T13:07:39;100322.76;;;20.74;41.92
57024;BME280;42916;54.346;18.562;2023-03-19T13:10:14;100320.98;;;20.58;42.29
57024;BME280;42916;54.346;18.562;2023-03-19T13:12:44;100315.62;;;20.32;42.48
57024;BME280;42916;54.346;18.562;2023-03-19T13:17:53;100314.60;;;19.84;42.89
57024;BME280;42916;54.346;18.562;2023-03-19T13:23:13;100304.66;;;19.70;43.46
57024;BME280;42916;54.346;18.562;2023-03-19T13:25:44;100309.74;;;19.53;43.56
57024;BME280;42916;54.346;18.562;2023-03-19T13:28:33;100310.35;;;19.35;43.55
57024;BME280;42916;54.346;18.562;2023-03-19T13:31:03;100308.36;;;19.20;43.78
57024;BME280;42916;54.346;18.562;2023-03-19T13:33:33;100311.23;;;19.20;43.91
57024;BME280;42916;54.346;18.562;2023-03-19T13:36:03;100307.93;;;19.34;44.02
57024;BME280;42916;54.346;18.562;2023-03-19T13:38:41;100304.66;;;19.48;43.72
57024;BME280;42916;54.346;18.562;2023-03-19T13:43:58;100302.36;;;19.59;43.49
57024;BME280;42916;54.346;18.562;2023-03-19T13:46:29;100296.80;;;19.75;43.47
57024;BME280;42916;54.346;18.562;2023-03-19T13:49:22;100298.77;;;19.85;43.48
57024;BME280;42916;54.346;18.562;2023-03-19T13:51:55;100299.48;;;19.78;43.49
57024;BME280;42916;54.346;18.562;2023-03-19T13:54:33;100297.29;;;19.93;43.66
57024;BME280;42916;54.346;18.562;2023-03-19T14:01:57;100298.60;;;19.93;42.90
57024;BME280;42916;54.346;18.562;2023-03-19T14:04:33;100298.91;;;19.68;43.19
57024;BME280;42916;54.346;18.562;2023-03-19T14:07:14;100299.19;;;19.45;43.33
57024;BME280;42916;54.346;18.562;2023-03-19T14:09:45;100298.21;;;19.15;43.53
57024;BME280;42916;54.346;18.562;2023-03-19T14:14:44;100297.95;;;18.62;44.27
57024;BME280;42916;54.346;18.562;2023-03-19T14:18:00;100299.08;;;18.37;44.68
57024;BME280;42916;54.346;18.562;2023-03-19T14:22:40;100301.45;;;17.91;45.41
57024;BME280;42916;54.346;18.562;2023-03-19T14:25:20;100301.94;;;17.77;45.83
57024;BME280;42916;54.346;18.562;2023-03-19T14:27:53;100296.86;;;17.66;45.99
57024;BME280;42916;54.346;18.562;2023-03-19T14:30:36;100296.25;;;17.49;46.22
57024;BME280;42916;54.346;18.562;2023-03-19T14:33:06;100295.03;;;17.38;46.52